sensor_id;sensor_type;location;lat;lon;timestamp;pressure;altitude;pressure_sealevel;temperature;humidity
64253;BME280;50592;52.958;-7.470;2023-01-28T00:00:33;102164.22;;;1.90;100.00
64253;BME280;50592;52.958;-7.470;2023-01-28T00:02:58;102160.97;;;1.83;100.00
64253;BME280;50592;52.958;-7.470;2023-01-28T00:05:24;102175.88;;;1.78;100.00
64253;BME280;50592;52.958;-7.470;2023-01-28T00:07:50;102166.41;;;1.75;100.00
64253;BME280;50592;52.958;-7.470;2023-01-28T00:10:16;102160.53;;;1.67;100.00
64253;BME280;50592;52.958;-7.470;2023-01-28T00:12:42;102163.28;;;1.62;100.00
64253;BME280;50592;52.958;-7.470;2023-01-28T00:15:08;102168.63;;;1.57;100.00
64253;BME280;50592;52.958;-7.470;2023-01-28T00:17:36;102160.91;;;1.54;100.00
64253;BME280;50592;52.958;-7.470;2023-01-28T00:20:03;102153.00;;;1.57;100.00
64253;BME280;50592;52.958;-7.470;2023-01-28T00:22:29;102147.81;;;1.56;100.00
64253;BME280;50592;52.958;-7.470;2023-01-28T00:24:54;102144.41;;;1.54;100.00
64253;BME280;50592;52.958;-7.470;2023-01-28T00:27:20;102137.47;;;1.53;100.00
64253;BME280;50592;52.958;-7.470;2023-01-28T00:29:46;102136.66;;;1.51;100.00
64253;BME280;50592;52.958;-7.470;2023-01-28T00:32:13;102141.84;;;1.52;100.00
64253;BME280;50592;52.958;-7.470;2023-01-28T00:34:39;102135.75;;;1.52;100.00
64253;BME280;50592;52.958;-7.470;2023-01-28T00:37:06;102140.13;;;1.51;100.00
64253;BME280;50592;52.958;-7.470;2023-01-28T00:39:32;102149.66;;;1.52;100.00
64253;BME280;50592;52.958;-7.470;2023-01-28T00:41:59;102146.25;;;1.48;100.00
64253;BME280;50592;52.958;-7.470;2023-01-28T00:44:25;102138.50;;;1.47;100.00
64253;BME280;50592;52.958;-7.470;2023-01-28T00:46:51;102154.94;;;1.49;100.00
64253;BME280;50592;52.958;-7.470;2023-01-28T00:49:21;102156.69;;;1.48;100.00
64253;BME280;50592;52.958;-7.470;2023-01-28T00:51:46;102144.44;;;1.52;100.00
64253;BME280;50592;52.958;-7.470;2023-01-28T00:54:15;102140.91;;;1.53;100.00
64253;BME280;50592;52.958;-7.470;2023-01-28T00:56:41;102139.28;;;1.51;100.00
64253;BME280;50592;52.958;-7.470;2023-01-28T00:59:06;102132.28;;;1.53;100.00
64253;BME280;50592;52.958;-7.470;2023-01-28T01:01:33;102124.31;;;1.57;100.00
64253;BME280;50592;52.958;-7.470;2023-01-28T01:03:59;102121.75;;;1.56;100.00
64253;BME280;50592;52.958;-7.470;2023-01-28T01:06:33;102110.50;;;1.54;100.00
64253;BME280;50592;52.958;-7.470;2023-01-28T01:09:01;102110.69;;;1.47;100.00
64253;BME280;50592;52.958;-7.470;2023-01-28T01:11:27;102106.38;;;1.46;100.00
64253;BME280;50592;52.958;-7.470;2023-01-28T01:13:55;102102.88;;;1.47;100.00
64253;BME280;50592;52.958;-7.470;2023-01-28T01:16:26;102099.41;;;1.47;100.00
64253;BME280;50592;52.958;-7.470;2023-01-28T01:18:52;102099.41;;;1.47;100.00
64253;BME280;50592;52.958;-7.470;2023-01-28T01:21:22;102105.38;;;1.51;100.00
64253;BME280;50592;52.958;-7.470;2023-01-28T01:23:48;102105.47;;;1.47;100.00
64253;BME280;50592;52.958;-7.470;2023-01-28T01:26:15;102108.00;;;1.51;100.00
64253;BME280;50592;52.958;-7.470;2023-01-28T01:28:41;102106.25;;;1.51;100.00
64253;BME280;50592;52.958;-7.470;2023-01-28T01:31:10;102103.47;;;1.57;100.00
64253;BME280;50592;52.958;-7.470;2023-01-28T01:33:40;102096.47;;;1.58;100.00
64253;BME280;50592;52.958;-7.470;2023-01-28T01:36:06;102097.34;;;1.58;100.00
64253;BME280;50592;52.958;-7.470;2023-01-28T01:38:32;102097.34;;;1.58;100.00
64253;BME280;50592;52.958;-7.470;2023-01-28T01:40:59;102096.38;;;1.61;100.00
64253;BME280;50592;52.958;-7.470;2023-01-28T01:44:05;102104.13;;;1.64;100.00
64253;BME280;50592;52.958;-7.470;2023-01-28T01:46:37;102117.94;;;1.68;100.00
64253;BME280;50592;52.958;-7.470;2023-01-28T01:51:45;102110.00;;;1.71;100.00
64253;BME280;50592;52.958;-7.470;2023-01-28T01:54:13;102109.94;;;1.74;100.00
64253;BME280;50592;52.958;-7.470;2023-01-28T01:56:42;102111.56;;;1.78;100.00
64253;BME280;50592;52.958;-7.470;2023-01-28T01:59:12;102114.06;;;1.81;100.00
64253;BME280;50592;52.958;-7.470;2023-01-28T02:01:40;102109.66;;;1.83;100.00
64253;BME280;50592;52.958;-7.470;2023-01-28T02:04:44;102098.34;;;1.84;100.00
64253;BME280;50592;52.958;-7.470;2023-01-28T02:07:03;102100.91;;;1.86;100.00
64253;BME280;50592;52.958;-7.470;2023-01-28T02:09:32;102111.19;;;1.91;100.00
64253;BME280;50592;52.958;-7.470;2023-01-28T02:12:02;102108.72;;;1.86;100.00
64253;BME280;50592;52.958;-7.470;2023-01-28T02:14:32;102105.16;;;1.89;100.00
64253;BME280;50592;52.958;-7.470;2023-01-28T02:17:00;102114.59;;;1.93;100.00
64253;BME280;50592;52.958;-7.470;2023-01-28T02:19:31;102116.06;;;2.02;100.00
64253;BME280;50592;52.958;-7.470;2023-01-28T02:22:39;102115.13;;;2.04;100.00
64253;BME280;50592;52.958;-7.470;2023-01-28T02:30:34;102110.53;;;2.13;100.00
64253;BME280;50592;52.958;-7.470;2023-01-28T02:33:14;102118.31;;;2.14;100.00
64253;BME280;50592;52.958;-7.470;2023-01-28T02:35:52;102121.72;;;2.16;100.00
64253;BME280;50592;52.958;-7.470;2023-01-28T02:38:24;102136.38;;;2.20;100.00
64253;BME280;50592;52.958;-7.470;2023-01-28T02:40:58;102143.28;;;2.21;100.00
64253;BME280;50592;52.958;-7.470;2023-01-28T02:43:38;102132.03;;;2.21;100.00
64253;BME280;50592;52.958;-7.470;2023-01-28T02:49:17;102113.47;;;2.30;100.00
64253;BME280;50592;52.958;-7.470;2023-01-28T02:54:58;102097.13;;;2.23;100.00
64253;BME280;50592;52.958;-7.470;2023-01-28T02:57:40;102096.31;;;2.21;100.00
64253;BME280;50592;52.958;-7.470;2023-01-28T03:02:50;102097.34;;;2.17;100.00
64253;BME280;50592;52.958;-7.470;2023-01-28T03:05:25;102088.94;;;2.07;100.00
64253;BME280;50592;52.958;-7.470;2023-01-28T03:07:53;102083.34;;;1.91;100.00
64253;BME280;50592;52.958;-7.470;2023-01-28T03:10:21;102096.69;;;1.80;100.00
64253;BME280;50592;52.958;-7.470;2023-01-28T03:12:53;102091.53;;;1.79;100.00
64253;BME280;50592;52.958;-7.470;2023-01-28T03:15:45;102082.84;;;1.80;100.00
64253;BME280;50592;52.958;-7.470;2023-01-28T03:18:52;102085.25;;;1.86;100.00
64253;BME280;50592;52.958;-7.470;2023-01-28T03:21:41;102077.38;;;1.88;100.00
64253;BME280;50592;52.958;-7.470;2023-01-28T03:24:35;102075.50;;;1.91;100.00
64253;BME280;50592;52.958;-7.470;2023-01-28T03:27:28;102078.03;;;1.94;100.00
64253;BME280;50592;52.958;-7.470;2023-01-28T03:30:36;102083.00;;;2.04;100.00
64253;BME280;50592;52.958;-7.470;2023-01-28T03:33:35;102090.66;;;2.08;100.00
64253;BME280;50592;52.958;-7.470;2023-01-28T03:36:19;102082.78;;;2.10;100.00
64253;BME280;50592;52.958;-7.470;2023-01-28T03:39:05;102074.81;;;2.15;100.00
64253;BME280;50592;52.958;-7.470;2023-01-28T03:41:31;102075.59;;;2.17;100.00
64253;BME280;50592;52.958;-7.470;2023-01-28T03:43:57;102072.16;;;2.16;100.00
64253;BME280;50592;52.958;-7.470;2023-01-28T03:46:44;102072.13;;;2.18;100.00
64253;BME280;50592;52.958;-7.470;2023-01-28T03:49:10;102072.91;;;2.20;100.00
64253;BME280;50592;52.958;-7.470;2023-01-28T03:51:36;102077.22;;;2.21;100.00
64253;BME280;50592;52.958;-7.470;2023-01-28T03:54:02;102077.94;;;2.26;100.00
64253;BME280;50592;52.958;-7.470;2023-01-28T03:56:28;102083.91;;;2.30;100.00
64253;BME280;50592;52.958;-7.470;2023-01-28T03:58:58;102089.13;;;2.30;100.00
64253;BME280;50592;52.958;-7.470;2023-01-28T04:01:23;102089.16;;;2.28;100.00
64253;BME280;50592;52.958;-7.470;2023-01-28T04:03:50;102089.97;;;2.30;100.00
64253;BME280;50592;52.958;-7.470;2023-01-28T04:06:26;102080.31;;;2.34;100.00
64253;BME280;50592;52.958;-7.470;2023-01-28T04:08:53;102094.91;;;2.40;100.00
64253;BME280;50592;52.958;-7.470;2023-01-28T04:11:39;102087.00;;;2.41;100.00
64253;BME280;50592;52.958;-7.470;2023-01-28T04:14:06;102087.88;;;2.42;100.00
64253;BME280;50592;52.958;-7.470;2023-01-28T04:16:46;102079.94;;;2.45;100.00
64253;BME280;50592;52.958;-7.470;2023-01-28T04:19:15;102072.91;;;2.47;100.00
64253;BME280;50592;52.958;-7.470;2023-01-28T04:21:41;102065.88;;;2.49;100.00
64253;BME280;50592;52.958;-7.470;2023-01-28T04:24:07;102059.78;;;2.48;100.00
64253;BME280;50592;52.958;-7.470;2023-01-28T04:26:34;102066.63;;;2.53;100.00
64253;BME280;50592;52.958;-7.470;2023-01-28T04:28:59;102054.34;;;2.56;100.00
64253;BME280;50592;52.958;-7.470;2023-01-28T04:31:25;102063.94;;;2.56;100.00
64253;BME280;50592;52.958;-7.470;2023-01-28T04:34:05;102081.34;;;2.55;100.00
64253;BME280;50592;52.958;-7.470;2023-01-28T04:36:57;102085.72;;;2.55;100.00
64253;BME280;50592;52.958;-7.470;2023-01-28T04:39:39;102084.66;;;2.60;100.00
64253;BME280;50592;52.958;-7.470;2023-01-28T04:42:37;102089.72;;;2.65;100.00
64253;BME280;50592;52.958;-7.470;2023-01-28T04:45:26;102077.59;;;2.64;100.00
64253;BME280;50592;52.958;-7.470;2023-01-28T04:48:18;102078.25;;;2.69;100.00
64253;BME280;50592;52.958;-7.470;2023-01-28T04:50:53;102082.53;;;2.72;100.00
64253;BME280;50592;52.958;-7.470;2023-01-28T04:53:42;102087.66;;;2.75;100.00
64253;BME280;50592;52.958;-7.470;2023-01-28T04:56:23;102091.84;;;2.79;100.00
64253;BME280;50592;52.958;-7.470;2023-01-28T04:58:49;102101.38;;;2.82;100.00
64253;BME280;50592;52.958;-7.470;2023-01-28T05:01:16;102109.97;;;2.84;100.00
64253;BME280;50592;52.958;-7.470;2023-01-28T05:03:41;102103.94;;;2.83;100.00
64253;BME280;50592;52.958;-7.470;2023-01-28T05:06:10;102109.88;;;2.87;100.00
64253;BME280;50592;52.958;-7.470;2023-01-28T05:08:41;102124.75;;;2.85;100.00
64253;BME280;50592;52.958;-7.470;2023-01-28T05:11:07;102127.44;;;2.83;100.00
64253;BME280;50592;52.958;-7.470;2023-01-28T05:13:34;102119.59;;;2.83;100.00
64253;BME280;50592;52.958;-7.470;2023-01-28T05:16:00;102116.94;;;2.85;100.00
64253;BME280;50592;52.958;-7.470;2023-01-28T05:18:25;102119.66;;;2.82;100.00
64253;BME280;50592;52.958;-7.470;2023-01-28T05:21:14;102124.88;;;2.80;100.00
64253;BME280;50592;52.958;-7.470;2023-01-28T05:23:40;102130.97;;;2.81;100.00
64253;BME280;50592;52.958;-7.470;2023-01-28T05:26:06;102136.97;;;2.84;100.00
64253;BME280;50592;52.958;-7.470;2023-01-28T05:28:33;102134.25;;;2.88;100.00
64253;BME280;50592;52.958;-7.470;2023-01-28T05:31:03;102133.28;;;2.90;100.00
64253;BME280;50592;52.958;-7.470;2023-01-28T05:33:29;102122.06;;;2.88;100.00
64253;BME280;50592;52.958;-7.470;2023-01-28T05:35:55;102113.28;;;2.89;100.00
64253;BME280;50592;52.958;-7.470;2023-01-28T05:38:21;102116.78;;;2.90;100.00
64253;BME280;50592;52.958;-7.470;2023-01-28T05:40:47;102115.84;;;2.91;100.00
64253;BME280;50592;52.958;-7.470;2023-01-28T05:43:14;102115.81;;;2.92;100.00
64253;BME280;50592;52.958;-7.470;2023-01-28T05:45:58;102119.34;;;2.91;100.00
64253;BME280;50592;52.958;-7.470;2023-01-28T05:48:50;102120.09;;;2.93;100.00
64253;BME280;50592;52.958;-7.470;2023-01-28T05:51:37;102128.81;;;2.94;100.00
64253;BME280;50592;52.958;-7.470;2023-01-28T05:54:05;102131.41;;;2.94;100.00
64253;BME280;50592;52.958;-7.470;2023-01-28T05:56:31;102126.31;;;2.91;100.00
64253;BME280;50592;52.958;-7.470;2023-01-28T05:58:58;102135.00;;;2.91;100.00
64253;BME280;50592;52.958;-7.470;2023-01-28T06:01:24;102124.56;;;2.91;100.00
64253;BME280;50592;52.958;-7.470;2023-01-28T06:03:52;102121.03;;;2.92;100.00
64253;BME280;50592;52.958;-7.470;2023-01-28T06:06:18;102121.03;;;2.92;100.00
64253;BME280;50592;52.958;-7.470;2023-01-28T06:08:45;102112.22;;;2.95;100.00
64253;BME280;50592;52.958;-7.470;2023-01-28T06:11:14;102116.56;;;2.96;100.00
64253;BME280;50592;52.958;-7.470;2023-01-28T06:13:42;102112.16;;;2.96;100.00
64253;BME280;50592;52.958;-7.470;2023-01-28T06:16:24;102113.94;;;2.96;100.00
64253;BME280;50592;52.958;-7.470;2023-01-28T06:19:08;102115.59;;;2.98;100.00
64253;BME280;50592;52.958;-7.470;2023-01-28T06:21:34;102110.41;;;2.97;100.00
64253;BME280;50592;52.958;-7.470;2023-01-28T06:24:00;102114.94;;;2.92;100.00
64253;BME280;50592;52.958;-7.470;2023-01-28T06:26:25;102128.97;;;2.89;100.00
64253;BME280;50592;52.958;-7.470;2023-01-28T06:28:51;102137.63;;;2.91;100.00
64253;BME280;50592;52.958;-7.470;2023-01-28T06:31:18;102131.47;;;2.92;100.00
64253;BME280;50592;52.958;-7.470;2023-01-28T06:33:43;102131.53;;;2.91;100.00
64253;BME280;50592;52.958;-7.470;2023-01-28T06:36:09;102128.91;;;2.91;100.00
64253;BME280;50592;52.958;-7.470;2023-01-28T06:38:35;102129.78;;;2.91;100.00
64253;BME280;50592;52.958;-7.470;2023-01-28T06:41:01;102129.84;;;2.90;100.00
64253;BME280;50592;52.958;-7.470;2023-01-28T06:43:28;102127.22;;;2.90;100.00
64253;BME280;50592;52.958;-7.470;2023-01-28T06:45:56;102126.34;;;2.89;100.00
64253;BME280;50592;52.958;-7.470;2023-01-28T06:48:22;102125.50;;;2.89;100.00
64253;BME280;50592;52.958;-7.470;2023-01-28T06:50:49;102123.84;;;2.86;100.00
64253;BME280;50592;52.958;-7.470;2023-01-28T06:53:15;102129.03;;;2.88;100.00
64253;BME280;50592;52.958;-7.470;2023-01-28T06:55:41;102116.00;;;2.86;100.00
64253;BME280;50592;52.958;-7.470;2023-01-28T06:58:07;102112.44;;;2.89;100.00
64253;BME280;50592;52.958;-7.470;2023-01-28T07:00:33;102121.25;;;2.86;100.00
64253;BME280;50592;52.958;-7.470;2023-01-28T07:02:59;102107.38;;;2.84;100.00
64253;BME280;50592;52.958;-7.470;2023-01-28T07:05:25;102109.00;;;2.88;100.00
64253;BME280;50592;52.958;-7.470;2023-01-28T07:07:51;102099.38;;;2.89;100.00
64253;BME280;50592;52.958;-7.470;2023-01-28T07:10:17;102094.97;;;2.91;100.00
64253;BME280;50592;52.958;-7.470;2023-01-28T07:12:42;102110.56;;;2.92;100.00
64253;BME280;50592;52.958;-7.470;2023-01-28T07:15:09;102102.69;;;2.94;100.00
64253;BME280;50592;52.958;-7.470;2023-01-28T07:17:40;102107.81;;;2.97;100.00
64253;BME280;50592;52.958;-7.470;2023-01-28T07:20:07;102102.41;;;3.02;100.00
64253;BME280;50592;52.958;-7.470;2023-01-28T07:22:33;102093.66;;;3.03;100.00
64253;BME280;50592;52.958;-7.470;2023-01-28T07:24:59;102097.13;;;3.03;100.00
64253;BME280;50592;52.958;-7.470;2023-01-28T07:27:26;102097.91;;;3.07;100.00
64253;BME280;50592;52.958;-7.470;2023-01-28T07:29:51;102109.16;;;3.09;100.00
64253;BME280;50592;52.958;-7.470;2023-01-28T07:32:17;102110.78;;;3.12;100.00
64253;BME280;50592;52.958;-7.470;2023-01-28T07:34:43;102109.81;;;3.14;100.00
64253;BME280;50592;52.958;-7.470;2023-01-28T07:37:09;102115.84;;;3.16;100.00
64253;BME280;50592;52.958;-7.470;2023-01-28T07:39:35;102111.50;;;3.17;100.00
64253;BME280;50592;52.958;-7.470;2023-01-28T07:42:01;102120.00;;;3.22;100.00
64253;BME280;50592;52.958;-7.470;2023-01-28T07:44:37;102120.81;;;3.24;100.00
64253;BME280;50592;52.958;-7.470;2023-01-28T07:47:04;102114.59;;;3.27;100.00
64253;BME280;50592;52.958;-7.470;2023-01-28T07:49:32;102115.53;;;3.26;100.00
64253;BME280;50592;52.958;-7.470;2023-01-28T07:51:57;102113.78;;;3.26;100.00
64253;BME280;50592;52.958;-7.470;2023-01-28T07:54:23;102113.72;;;3.28;100.00
64253;BME280;50592;52.958;-7.470;2023-01-28T07:56:49;102117.97;;;3.30;100.00
64253;BME280;50592;52.958;-7.470;2023-01-28T07:59:15;102116.09;;;3.34;100.00
64253;BME280;50592;52.958;-7.470;2023-01-28T08:01:41;102114.38;;;3.33;100.00
64253;BME280;50592;52.958;-7.470;2023-01-28T08:04:06;102110.13;;;3.30;100.00
64253;BME280;50592;52.958;-7.470;2023-01-28T08:06:32;102114.56;;;3.28;100.00
64253;BME280;50592;52.958;-7.470;2023-01-28T08:09:06;102117.97;;;3.30;100.00
64253;BME280;50592;52.958;-7.470;2023-01-28T08:11:33;102117.09;;;3.30;100.00
64253;BME280;50592;52.958;-7.470;2023-01-28T08:14:02;102120.59;;;3.30;100.00
64253;BME280;50592;52.958;-7.470;2023-01-28T08:16:27;102126.72;;;3.29;100.00
64253;BME280;50592;52.958;-7.470;2023-01-28T08:18:54;102127.69;;;3.27;100.00
64253;BME280;50592;52.958;-7.470;2023-01-28T08:21:20;102122.50;;;3.25;100.00
64253;BME280;50592;52.958;-7.470;2023-01-28T08:23:46;102116.50;;;3.23;100.00
64253;BME280;50592;52.958;-7.470;2023-01-28T08:26:12;102124.28;;;3.25;100.00
64253;BME280;50592;52.958;-7.470;2023-01-28T08:28:37;102128.66;;;3.24;100.00
64253;BME280;50592;52.958;-7.470;2023-01-28T08:31:03;102134.63;;;3.28;100.00
64253;BME280;50592;52.958;-7.470;2023-01-28T08:33:29;102136.22;;;3.32;100.00
64253;BME280;50592;52.958;-7.470;2023-01-28T08:35:55;102136.00;;;3.38;100.00
64253;BME280;50592;52.958;-7.470;2023-01-28T08:38:20;102137.59;;;3.42;100.00
64253;BME280;50592;52.958;-7.470;2023-01-28T08:40:47;102128.78;;;3.45;100.00
64253;BME280;50592;52.958;-7.470;2023-01-28T08:43:15;102126.13;;;3.46;100.00
64253;BME280;50592;52.958;-7.470;2023-01-28T08:45:41;102140.06;;;3.47;100.00
64253;BME280;50592;52.958;-7.470;2023-01-28T08:48:11;102142.66;;;3.47;100.00
64253;BME280;50592;52.958;-7.470;2023-01-28T08:50:39;102141.06;;;3.43;100.00
64253;BME280;50592;52.958;-7.470;2023-01-28T08:53:08;102140.16;;;3.44;100.00
64253;BME280;50592;52.958;-7.470;2023-01-28T08:55:35;102143.66;;;3.43;100.00
64253;BME280;50592;52.958;-7.470;2023-01-28T08:58:02;102143.56;;;3.46;100.00
64253;BME280;50592;52.958;-7.470;2023-01-28T09:00:28;102145.22;;;3.49;100.00
64253;BME280;50592;52.958;-7.470;2023-01-28T09:02:54;102143.28;;;3.54;100.00
64253;BME280;50592;52.958;-7.470;2023-01-28T09:05:20;102141.34;;;3.59;100.00
64253;BME280;50592;52.958;-7.470;2023-01-28T09:07:47;102141.19;;;3.64;100.00
64253;BME280;50592;52.958;-7.470;2023-01-28T09:10:13;102146.22;;;3.68;100.00
64253;BME280;50592;52.958;-7.470;2023-01-28T09:12:41;102150.41;;;3.74;100.00
64253;BME280;50592;52.958;-7.470;2023-01-28T09:15:08;102152.91;;;3.77;100.00
64253;BME280;50592;52.958;-7.470;2023-01-28T09:17:34;102143.16;;;3.81;100.00
64253;BME280;50592;52.958;-7.470;2023-01-28T09:19:59;102150.13;;;3.82;100.00
64253;BME280;50592;52.958;-7.470;2023-01-28T09:22:25;102155.16;;;3.87;100.00
64253;BME280;50592;52.958;-7.470;2023-01-28T09:24:51;102154.13;;;3.91;100.00
64253;BME280;50592;52.958;-7.470;2023-01-28T09:27:17;102153.13;;;3.95;100.00
64253;BME280;50592;52.958;-7.470;2023-01-28T09:29:43;102147.88;;;3.95;100.00
64253;BME280;50592;52.958;-7.470;2023-01-28T09:32:09;102134.75;;;3.96;100.00
64253;BME280;50592;52.958;-7.470;2023-01-28T09:34:35;102145.16;;;3.98;100.00
64253;BME280;50592;52.958;-7.470;2023-01-28T09:37:01;102140.69;;;4.00;100.00
64253;BME280;50592;52.958;-7.470;2023-01-28T09:39:26;102150.91;;;4.06;100.00
64253;BME280;50592;52.958;-7.470;2023-01-28T09:42:02;102149.06;;;4.10;100.00
64253;BME280;50592;52.958;-7.470;2023-01-28T09:47:25;102148.56;;;4.22;100.00
64253;BME280;50592;52.958;-7.470;2023-01-28T09:49:53;102148.44;;;4.26;100.00
64253;BME280;50592;52.958;-7.470;2023-01-28T09:52:23;102149.13;;;4.31;100.00
64253;BME280;50592;52.958;-7.470;2023-01-28T09:54:58;102142.91;;;4.33;100.00
64253;BME280;50592;52.958;-7.470;2023-01-28T09:57:39;102141.09;;;4.36;100.00
64253;BME280;50592;52.958;-7.470;2023-01-28T10:00:18;102123.56;;;4.38;100.00
64253;BME280;50592;52.958;-7.470;2023-01-28T10:10:37;102133.78;;;4.44;100.00
64253;BME280;50592;52.958;-7.470;2023-01-28T10:18:39;102144.06;;;4.49;100.00
64253;BME280;50592;52.958;-7.470;2023-01-28T10:21:16;102140.47;;;4.51;100.00
64253;BME280;50592;52.958;-7.470;2023-01-28T10:23:45;102131.59;;;4.55;100.00
64253;BME280;50592;52.958;-7.470;2023-01-28T10:26:36;102146.06;;;4.64;100.00
64253;BME280;50592;52.958;-7.470;2023-01-28T10:29:17;102130.94;;;4.71;100.00
64253;BME280;50592;52.958;-7.470;2023-01-28T10:32:00;102138.53;;;4.77;100.00
64253;BME280;50592;52.958;-7.470;2023-01-28T10:34:28;102135.88;;;4.79;100.00
64253;BME280;50592;52.958;-7.470;2023-01-28T10:36:53;102136.53;;;4.84;100.00
64253;BME280;50592;52.958;-7.470;2023-01-28T10:39:23;102127.41;;;4.93;100.00
64253;BME280;50592;52.958;-7.470;2023-01-28T10:41:50;102131.59;;;4.97;100.00
64253;BME280;50592;52.958;-7.470;2023-01-28T10:44:21;102135.66;;;5.04;100.00
64253;BME280;50592;52.958;-7.470;2023-01-28T10:46:50;102137.28;;;5.07;100.00
64253;BME280;50592;52.958;-7.470;2023-01-28T10:49:21;102139.03;;;5.08;100.00
64253;BME280;50592;52.958;-7.470;2023-01-28T10:51:49;102141.44;;;5.13;100.00
64253;BME280;50592;52.958;-7.470;2023-01-28T10:54:21;102136.69;;;5.21;100.00
64253;BME280;50592;52.958;-7.470;2023-01-28T10:56:49;102136.56;;;5.24;100.00
64253;BME280;50592;52.958;-7.470;2023-01-28T10:59:29;102131.19;;;5.27;100.00
64253;BME280;50592;52.958;-7.470;2023-01-28T11:01:57;102135.31;;;5.33;100.00
64253;BME280;50592;52.958;-7.470;2023-01-28T11:04:26;102131.56;;;5.39;100.00
64253;BME280;50592;52.958;-7.470;2023-01-28T11:09:35;102137.47;;;5.44;100.00
64253;BME280;50592;52.958;-7.470;2023-01-28T11:12:11;102138.13;;;5.49;100.00
64253;BME280;50592;52.958;-7.470;2023-01-28T11:14:48;102144.25;;;5.48;100.00
64253;BME280;50592;52.958;-7.470;2023-01-28T11:17:15;102147.53;;;5.53;100.00
64253;BME280;50592;52.958;-7.470;2023-01-28T11:19:42;102146.47;;;5.57;100.00
64253;BME280;50592;52.958;-7.470;2023-01-28T11:24:46;102139.09;;;5.66;100.00
64253;BME280;50592;52.958;-7.470;2023-01-28T11:27:16;102138.00;;;5.71;100.00
64253;BME280;50592;52.958;-7.470;2023-01-28T11:29:43;102129.13;;;5.74;100.00
64253;BME280;50592;52.958;-7.470;2023-01-28T11:32:19;102130.44;;;5.83;100.00
64253;BME280;50592;52.958;-7.470;2023-01-28T11:34:54;102136.41;;;5.87;100.00
64253;BME280;50592;52.958;-7.470;2023-01-28T11:37:23;102125.78;;;5.90;100.00
64253;BME280;50592;52.958;-7.470;2023-01-28T11:40:23;102121.09;;;5.96;100.00
64253;BME280;50592;52.958;-7.470;2023-01-28T11:42:50;102125.41;;;5.98;100.00
64253;BME280;50592;52.958;-7.470;2023-01-28T11:46:05;102120.03;;;6.01;100.00
64253;BME280;50592;52.958;-7.470;2023-01-28T11:48:13;102109.34;;;6.05;100.00
64253;BME280;50592;52.958;-7.470;2023-01-28T11:50:53;102108.28;;;6.10;100.00
64253;BME280;50592;52.958;-7.470;2023-01-28T11:56:40;102101.34;;;6.26;100.00
64253;BME280;50592;52.958;-7.470;2023-01-28T11:59:33;102087.69;;;6.37;100.00
64253;BME280;50592;52.958;-7.470;2023-01-28T12:05:37;102086.47;;;6.44;100.00
64253;BME280;50592;52.958;-7.470;2023-01-28T12:08:01;102087.19;;;6.48;100.00
64253;BME280;50592;52.958;-7.470;2023-01-28T12:19:02;102083.69;;;6.65;100.00
64253;BME280;50592;52.958;-7.470;2023-01-28T12:41:30;102058.88;;;6.71;100.00
64253;BME280;50592;52.958;-7.470;2023-01-28T12:43:59;102067.69;;;6.70;100.00
64253;BME280;50592;52.958;-7.470;2023-01-28T12:46:32;102062.28;;;6.73;100.00
64253;BME280;50592;52.958;-7.470;2023-01-28T12:49:16;102071.00;;;6.74;100.00
64253;BME280;50592;52.958;-7.470;2023-01-28T12:52:14;102067.63;;;6.72;100.00
64253;BME280;50592;52.958;-7.470;2023-01-28T12:55:03;102060.72;;;6.69;100.00
64253;BME280;50592;52.958;-7.470;2023-01-28T12:57:35;102056.41;;;6.68;100.00
64253;BME280;50592;52.958;-7.470;2023-01-28T13:00:33;102056.31;;;6.69;100.00
64253;BME280;50592;52.958;-7.470;2023-01-28T13:03:25;102053.63;;;6.71;100.00
64253;BME280;50592;52.958;-7.470;2023-01-28T13:06:00;102048.19;;;6.74;100.00
64253;BME280;50592;52.958;-7.470;2023-01-28T13:08:27;102046.59;;;6.72;100.00
64253;BME280;50592;52.958;-7.470;2023-01-28T13:10:55;102042.88;;;6.76;100.00
64253;BME280;50592;52.958;-7.470;2023-01-28T13:13:33;102034.56;;;6.83;100.00
64253;BME280;50592;52.958;-7.470;2023-01-28T13:16:00;102030.78;;;6.89;100.00
64253;BME280;50592;52.958;-7.470;2023-01-28T13:20:56;102019.94;;;6.95;100.00
64253;BME280;50592;52.958;-7.470;2023-01-28T13:23:40;102009.28;;;6.99;100.00
64253;BME280;50592;52.958;-7.470;2023-01-28T13:28:48;102002.53;;;6.93;100.00
64253;BME280;50592;52.958;-7.470;2023-01-28T13:31:17;102000.06;;;6.90;100.00
64253;BME280;50592;52.958;-7.470;2023-01-28T13:39:01;101991.38;;;6.89;100.00
64253;BME280;50592;52.958;-7.470;2023-01-28T13:41:46;101987.78;;;6.90;100.00
64253;BME280;50592;52.958;-7.470;2023-01-28T13:46:51;101978.13;;;6.91;100.00
64253;BME280;50592;52.958;-7.470;2023-01-28T13:49:23;101968.28;;;6.94;100.00
64253;BME280;50592;52.958;-7.470;2023-01-28T13:51:58;101962.88;;;6.98;100.00
64253;BME280;50592;52.958;-7.470;2023-01-28T13:54:27;101965.56;;;6.96;100.00
64253;BME280;50592;52.958;-7.470;2023-01-28T14:08:18;101949.97;;;6.93;100.00
64253;BME280;50592;52.958;-7.470;2023-01-28T14:18:43;101945.50;;;7.11;100.00
64253;BME280;50592;52.958;-7.470;2023-01-28T14:21:18;101949.72;;;7.14;100.00
64253;BME280;50592;52.958;-7.470;2023-01-28T14:23:50;101956.78;;;7.13;100.00
64253;BME280;50592;52.958;-7.470;2023-01-28T14:31:43;101964.78;;;7.12;100.00
64253;BME280;50592;52.958;-7.470;2023-01-28T14:36:42;101984.00;;;7.12;100.00
64253;BME280;50592;52.958;-7.470;2023-01-28T14:39:29;101987.50;;;7.13;100.00
64253;BME280;50592;52.958;-7.470;2023-01-28T14:42:01;101994.53;;;7.12;100.00
64253;BME280;50592;52.958;-7.470;2023-01-28T14:44:30;101994.53;;;7.12;100.00
64253;BME280;50592;52.958;-7.470;2023-01-28T14:52:52;102006.47;;;7.02;100.00
64253;BME280;50592;52.958;-7.470;2023-01-28T14:55:58;101995.34;;;6.97;100.00
64253;BME280;50592;52.958;-7.470;2023-01-28T14:58:36;101999.75;;;6.96;100.00
64253;BME280;50592;52.958;-7.470;2023-01-28T15:01:03;102006.13;;;6.92;100.00